Time;durP1;ratioP1;P1;durP2;ratioP2;P2;SDS_P1;SDS_P2;PMS_P1;PMS_P2;Temp;Humidity;BMP_temperature;BMP_pressure;BME280_temperature;BME280_humidity;BME280_pressure;Samples;Min_cycle;Max_cycle;Signal;HPM_P1;HPM_P2
2021/05/22 00:00:06;;;;;;;10.64;4.28;;;;;;;;;;377123;107;1961936;-72
2021/05/22 00:01:11;;;;;;;8.68;3.70;;;;;;;;;;375023;105;1962054;-71
2021/05/22 00:02:16;;;;;;;8.77;3.83;;;;;;;;;;372847;105;1963037;-71
2021/05/22 00:03:22;;;;;;;10.14;4.93;;;;;;;;;;355496;110;2885026;-70
2021/05/22 00:04:27;;;;;;;12.78;4.53;;;;;;;;;;349120;110;1962965;-72
2021/05/22 00:05:33;;;;;;;11.98;4.38;;;;;;;;;;355054;108;1961841;-71
2021/05/22 00:06:38;;;;;;;11.88;4.43;;;;;;;;;;371188;107;1964970;-70
2021/05/22 00:07:43;;;;;;;11.88;4.72;;;;;;;;;;374658;108;1961989;-70
2021/05/22 00:08:48;;;;;;;9.03;4.77;;;;;;;;;;372875;107;1961925;-70
2021/05/22 00:09:54;;;;;;;9.64;4.36;;;;;;;;;;370492;108;1963942;-71
2021/05/22 00:10:59;;;;;;;11.66;4.88;;;;;;;;;;372022;107;1962978;-70
2021/05/22 00:12:04;;;;;;;12.29;4.86;;;;;;;;;;372465;107;1961968;-71
2021/05/22 00:13:09;;;;;;;9.74;4.57;;;;;;;;;;359955;112;1963936;-71
2021/05/22 00:14:14;;;;;;;9.65;4.33;;;;;;;;;;373026;107;1962071;-72
2021/05/22 00:15:27;;;;;;;11.72;5.38;;;;;;;;;;342410;104;2811358;-72
2021/05/22 00:16:33;;;;;;;9.51;4.67;;;;;;;;;;374795;106;1968927;-70
2021/05/22 00:17:39;;;;;;;9.39;5.08;;;;;;;;;;369649;107;1961951;-71
2021/05/22 00:18:43;;;;;;;8.79;4.72;;;;;;;;;;367830;109;1961953;-71
2021/05/22 00:19:49;;;;;;;10.13;5.74;;;;;;;;;;368872;109;1964889;-71
2021/05/22 00:21:01;;;;;;;11.27;5.77;;;;;;;;;;387120;105;1986903;-73
2021/05/22 00:22:06;;;;;;;10.32;5.37;;;;;;;;;;360047;110;1964041;-72
2021/05/22 00:23:13;;;;;;;10.87;4.77;;;;;;;;;;351198;114;1961913;-72
2021/05/22 00:24:18;;;;;;;9.91;5.12;;;;;;;;;;368916;110;1961943;-72
2021/05/22 00:25:23;;;;;;;8.57;3.98;;;;;;;;;;365841;110;1961919;-73
2021/05/22 00:26:30;;;;;;;9.29;4.62;;;;;;;;;;369104;110;1961868;-73
2021/05/22 00:27:35;;;;;;;7.83;3.72;;;;;;;;;;368822;110;1962011;-74
2021/05/22 00:28:47;;;;;;;8.04;3.21;;;;;;;;;;349374;106;2610900;-73
2021/05/22 00:29:53;;;;;;;9.32;4.23;;;;;;;;;;340741;108;1961770;-73
2021/05/22 00:30:58;;;;;;;7.26;3.55;;;;;;;;;;332311;110;1961923;-73
2021/05/22 00:32:09;;;;;;;9.40;4.32;;;;;;;;;;399243;101;1985953;-72
2021/05/22 00:33:14;;;;;;;10.77;4.36;;;;;;;;;;387084;103;1961930;-72
2021/05/22 00:34:26;;;;;;;11.68;4.73;;;;;;;;;;385699;106;1987047;-72
2021/05/22 00:35:33;;;;;;;9.10;4.17;;;;;;;;;;359128;109;1961944;-72
2021/05/22 00:36:57;;;;;;;8.26;4.08;;;;;;;;;;328583;109;2674018;-73
2021/05/22 00:38:02;;;;;;;8.49;4.28;;;;;;;;;;319136;109;1982737;-73
2021/05/22 00:39:14;;;;;;;8.84;4.72;;;;;;;;;;396004;104;1986959;-74
2021/05/22 00:40:19;;;;;;;8.70;4.53;;;;;;;;;;378034;105;1964959;-72
2021/05/22 00:41:24;;;;;;;7.46;3.99;;;;;;;;;;376771;107;1963900;-73
2021/05/22 00:42:29;;;;;;;12.18;5.04;;;;;;;;;;379760;105;1962992;-72
2021/05/22 00:43:37;;;;;;;11.94;5.41;;;;;;;;;;380040;106;1962987;-73
2021/05/22 00:45:08;;;;;;;13.36;5.81;;;;;;;;;;380929;104;2070964;-72
2021/05/22 00:46:13;;;;;;;8.27;4.48;;;;;;;;;;369331;105;1969984;-72
2021/05/22 00:47:18;;;;;;;9.90;4.66;;;;;;;;;;378873;105;1960723;-72
2021/05/22 00:48:23;;;;;;;8.99;4.60;;;;;;;;;;375400;105;1965041;-72
2021/05/22 00:49:35;;;;;;;8.88;4.29;;;;;;;;;;395513;104;1986019;-73
2021/05/22 00:50:41;;;;;;;8.77;3.96;;;;;;;;;;376254;105;1962064;-73
2021/05/22 00:51:46;;;;;;;8.85;3.91;;;;;;;;;;373280;107;1961938;-73
2021/05/22 00:52:53;;;;;;;9.74;4.02;;;;;;;;;;367568;109;1961964;-73
2021/05/22 00:53:58;;;;;;;10.07;4.66;;;;;;;;;;348380;109;1961958;-73
2021/05/22 00:55:04;;;;;;;10.96;5.20;;;;;;;;;;362794;108;1962996;-73
2021/05/22 00:56:09;;;;;;;8.86;4.49;;;;;;;;;;370002;107;1961942;-73
2021/05/22 00:57:16;;;;;;;10.74;4.56;;;;;;;;;;368421;108;1962997;-72
2021/05/22 00:58:21;;;;;;;9.08;3.85;;;;;;;;;;369193;107;1961901;-73
2021/05/22 00:59:27;;;;;;;8.39;3.70;;;;;;;;;;368540;107;1963014;-73
2021/05/22 01:00:39;;;;;;;10.07;4.63;;;;;;;;;;378667;104;1985995;-72
2021/05/22 01:01:45;;;;;;;8.21;3.70;;;;;;;;;;377218;106;1960927;-72
2021/05/22 01:02:50;;;;;;;9.96;4.12;;;;;;;;;;370975;108;1960940;-72
2021/05/22 01:03:55;;;;;;;8.88;3.57;;;;;;;;;;369259;108;1960896;-71
2021/05/22 01:05:07;;;;;;;12.53;4.59;;;;;;;;;;395151;104;1986036;-71
2021/05/22 01:06:15;;;;;;;7.53;3.34;;;;;;;;;;352048;106;2378960;-73
2021/05/22 01:07:20;;;;;;;8.17;3.42;;;;;;;;;;374016;106;1962044;-72
2021/05/22 01:08:25;;;;;;;8.01;3.77;;;;;;;;;;372009;106;1961811;-72
2021/05/22 01:09:31;;;;;;;8.13;3.71;;;;;;;;;;371945;107;1962960;-71
2021/05/22 01:10:37;;;;;;;9.04;4.15;;;;;;;;;;371389;108;1961050;-71
2021/05/22 01:11:49;;;;;;;8.93;4.36;;;;;;;;;;376417;104;1987073;-71
2021/05/22 01:12:55;;;;;;;7.35;3.74;;;;;;;;;;367425;108;1963049;-71
2021/05/22 01:14:12;;;;;;;11.68;4.46;;;;;;;;;;366419;109;1965033;-72
2021/05/22 01:15:20;;;;;;;8.96;4.20;;;;;;;;;;327820;109;2641928;-71
2021/05/22 01:16:33;;;;;;;9.65;4.07;;;;;;;;;;397147;104;1986978;-72
2021/05/22 01:17:39;;;;;;;9.71;4.26;;;;;;;;;;359913;105;1969882;-73
2021/05/22 01:18:45;;;;;;;8.38;4.20;;;;;;;;;;378867;105;1964997;-72
2021/05/22 01:20:10;;;;;;;10.15;4.07;;;;;;;;;;381487;105;1961925;-71
2021/05/22 01:21:17;;;;;;;8.03;4.41;;;;;;;;;;379191;105;1961995;-71
2021/05/22 01:22:23;;;;;;;7.56;3.51;;;;;;;;;;331186;105;2797943;-71
2021/05/22 01:23:31;;;;;;;7.89;4.01;;;;;;;;;;380529;105;1961921;-71
2021/05/22 01:24:38;;;;;;;8.04;3.51;;;;;;;;;;380530;105;1961961;-72
2021/05/22 01:25:51;;;;;;;6.49;3.38;;;;;;;;;;393865;104;1985933;-73
2021/05/22 01:26:56;;;;;;;5.32;2.91;;;;;;;;;;376583;106;1964021;-72
2021/05/22 01:28:03;;;;;;;5.57;2.88;;;;;;;;;;371261;107;1962048;-72
2021/05/22 01:29:09;;;;;;;6.97;3.43;;;;;;;;;;359220;107;1963960;-72
2021/05/22 01:30:15;;;;;;;5.87;2.91;;;;;;;;;;370625;107;1961963;-72
2021/05/22 01:31:20;;;;;;;9.41;3.35;;;;;;;;;;371872;107;1964015;-70
2021/05/22 01:32:26;;;;;;;7.88;3.24;;;;;;;;;;371655;107;1961935;-72
2021/05/22 01:33:33;;;;;;;9.01;3.58;;;;;;;;;;347502;107;2340030;-71
2021/05/22 01:34:38;;;;;;;7.73;2.97;;;;;;;;;;350301;107;1963014;-70
2021/05/22 01:35:43;;;;;;;8.29;3.01;;;;;;;;;;365556;108;1964902;-74
2021/05/22 01:36:51;;;;;;;8.38;4.02;;;;;;;;;;369572;107;1962000;-72
2021/05/22 01:37:57;;;;;;;6.76;3.11;;;;;;;;;;371246;107;1962093;-70
2021/05/22 01:39:03;;;;;;;7.23;3.24;;;;;;;;;;320093;107;2860993;-71
2021/05/22 01:40:09;;;;;;;7.07;3.34;;;;;;;;;;371536;107;1964975;-71
2021/05/22 01:41:14;;;;;;;6.23;2.90;;;;;;;;;;371515;108;1961972;-73
2021/05/22 01:42:27;;;;;;;7.57;2.96;;;;;;;;;;383730;106;1985956;-72
2021/05/22 01:43:33;;;;;;;8.26;2.87;;;;;;;;;;329707;110;2439950;-72
2021/05/22 01:44:39;;;;;;;8.81;3.35;;;;;;;;;;331938;114;1963015;-70
2021/05/22 01:45:45;;;;;;;7.44;3.23;;;;;;;;;;353855;112;1961957;-72
2021/05/22 01:46:51;;;;;;;6.97;2.84;;;;;;;;;;357519;112;1961965;-72
2021/05/22 01:47:57;;;;;;;8.21;3.17;;;;;;;;;;352392;113;1962958;-71
2021/05/22 01:49:04;;;;;;;6.03;3.28;;;;;;;;;;298871;114;2085359;-69
2021/05/22 01:50:11;;;;;;;7.51;3.66;;;;;;;;;;346927;115;1964095;-71
2021/05/22 01:51:19;;;;;;;7.19;3.80;;;;;;;;;;353858;114;1961917;-71
2021/05/22 01:52:44;;;;;;;9.90;3.90;;;;;;;;;;330776;112;2288944;-72
2021/05/22 01:53:50;;;;;;;9.20;3.86;;;;;;;;;;351572;115;1962018;-73
2021/05/22 01:55:03;;;;;;;6.26;2.95;;;;;;;;;;390153;106;1985937;-72
2021/05/22 01:56:11;;;;;;;6.65;3.27;;;;;;;;;;366409;107;1961937;-71
2021/05/22 01:57:17;;;;;;;6.36;2.83;;;;;;;;;;324562;107;2760030;-71
2021/05/22 01:58:23;;;;;;;5.82;2.74;;;;;;;;;;317608;107;2069268;-73
2021/05/22 01:59:28;;;;;;;7.21;3.12;;;;;;;;;;337396;107;1961982;-72
2021/05/22 02:00:34;;;;;;;7.06;2.95;;;;;;;;;;367293;107;1965920;-72
2021/05/22 02:01:50;;;;;;;6.26;3.08;;;;;;;;;;368663;107;1964024;-72
2021/05/22 02:03:13;;;;;;;8.31;3.19;;;;;;;;;;341746;104;2852980;-71
2021/05/22 02:04:20;;;;;;;7.03;2.95;;;;;;;;;;374913;107;1961880;-71
2021/05/22 02:05:26;;;;;;;6.83;2.91;;;;;;;;;;374826;107;1963001;-70
2021/05/22 02:06:33;;;;;;;5.78;2.69;;;;;;;;;;375342;107;1961976;-70
2021/05/22 02:07:47;;;;;;;7.21;3.63;;;;;;;;;;394444;104;1986961;-67
2021/05/22 02:08:54;;;;;;;6.00;3.11;;;;;;;;;;369427;106;2892990;-72
2021/05/22 02:10:00;;;;;;;5.96;2.94;;;;;;;;;;374310;105;1961941;-72
2021/05/22 02:11:38;;;;;;;7.72;3.24;;;;;;;;;;414728;99;1985984;-71
2021/05/22 02:12:44;;;;;;;6.89;3.90;;;;;;;;;;394035;103;1962883;-70
2021/05/22 02:13:49;;;;;;;6.03;3.19;;;;;;;;;;386372;102;1961933;-72
2021/05/22 02:14:54;;;;;;;8.02;3.37;;;;;;;;;;389889;103;1961932;-70
2021/05/22 02:16:01;;;;;;;9.64;3.96;;;;;;;;;;387943;103;1962899;-71
2021/05/22 02:17:06;;;;;;;8.23;4.08;;;;;;;;;;386660;103;1961969;-71
2021/05/22 02:18:12;;;;;;;9.17;3.89;;;;;;;;;;384266;103;1963883;-71
2021/05/22 02:19:18;;;;;;;8.16;3.57;;;;;;;;;;345453;103;2613009;-72
2021/05/22 02:20:25;;;;;;;7.80;3.94;;;;;;;;;;389165;103;1960928;-71
2021/05/22 02:21:32;;;;;;;9.92;3.99;;;;;;;;;;391428;101;1961987;-71
2021/05/22 02:22:38;;;;;;;10.47;4.55;;;;;;;;;;329122;102;2114470;-71
2021/05/22 02:23:45;;;;;;;13.87;4.63;;;;;;;;;;388270;103;1965971;-70
2021/05/22 02:24:51;;;;;;;9.96;4.86;;;;;;;;;;391362;102;1961939;-71
2021/05/22 02:25:57;;;;;;;10.11;4.50;;;;;;;;;;389492;101;1963865;-72
2021/05/22 02:27:04;;;;;;;8.38;3.67;;;;;;;;;;332969;103;2237974;-71
2021/05/22 02:28:10;;;;;;;10.86;4.36;;;;;;;;;;389211;103;1961944;-71
2021/05/22 02:29:17;;;;;;;8.58;4.01;;;;;;;;;;391490;103;1961893;-71
2021/05/22 02:30:28;;;;;;;8.13;4.02;;;;;;;;;;401911;101;1987935;-71
2021/05/22 02:31:39;;;;;;;8.99;3.93;;;;;;;;;;383517;104;1961974;-70
2021/05/22 02:33:09;;;;;;;7.53;3.96;;;;;;;;;;362657;100;2676769;-70
2021/05/22 02:34:15;;;;;;;8.82;3.87;;;;;;;;;;387589;102;1962020;-70
2021/05/22 02:35:40;;;;;;;9.66;3.36;;;;;;;;;;383923;103;1963998;-72
2021/05/22 02:36:47;;;;;;;8.29;2.97;;;;;;;;;;390466;102;1961932;-71
2021/05/22 02:37:53;;;;;;;7.83;3.33;;;;;;;;;;361622;102;2390842;-72
2021/05/22 02:39:06;;;;;;;8.04;2.95;;;;;;;;;;393386;104;1961957;-71
2021/05/22 02:40:14;;;;;;;6.75;3.04;;;;;;;;;;341446;105;2517937;-70
2021/05/22 02:41:20;;;;;;;9.23;3.70;;;;;;;;;;373579;105;1961996;-70
2021/05/22 02:42:25;;;;;;;7.21;3.92;;;;;;;;;;376507;106;1962991;-71
2021/05/22 02:43:31;;;;;;;7.44;3.46;;;;;;;;;;377117;106;1962002;-71
2021/05/22 02:44:37;;;;;;;10.21;3.64;;;;;;;;;;346443;106;2525965;-69
2021/05/22 02:45:44;;;;;;;8.06;4.10;;;;;;;;;;361795;106;1964000;-71
2021/05/22 02:46:50;;;;;;;9.49;3.87;;;;;;;;;;377512;106;1962044;-71
2021/05/22 02:47:57;;;;;;;7.02;3.09;;;;;;;;;;380676;106;1961990;-72
2021/05/22 02:49:03;;;;;;;11.26;3.68;;;;;;;;;;343962;106;1964965;-71
2021/05/22 02:50:09;;;;;;;8.32;3.86;;;;;;;;;;378431;106;1963917;-72
2021/05/22 02:51:16;;;;;;;7.58;3.68;;;;;;;;;;378392;106;1962027;-72
2021/05/22 02:52:21;;;;;;;10.21;3.98;;;;;;;;;;378949;106;1962000;-72
2021/05/22 02:53:26;;;;;;;10.77;4.14;;;;;;;;;;382252;106;1961888;-72
2021/05/22 02:54:35;;;;;;;9.71;5.63;;;;;;;;;;347898;106;2465829;-72
2021/05/22 02:55:41;;;;;;;9.08;4.22;;;;;;;;;;379527;106;1962025;-72
2021/05/22 02:56:50;;;;;;;7.92;3.86;;;;;;;;;;377823;106;1963997;-72
2021/05/22 02:57:56;;;;;;;10.41;4.02;;;;;;;;;;379535;106;1961968;-72
2021/05/22 02:59:08;;;;;;;11.90;4.91;;;;;;;;;;389726;104;1964948;-73
2021/05/22 03:00:14;;;;;;;9.17;4.12;;;;;;;;;;376844;107;1960702;-71
2021/05/22 03:01:20;;;;;;;9.54;4.27;;;;;;;;;;365861;107;1961888;-72
2021/05/22 03:02:25;;;;;;;8.02;4.12;;;;;;;;;;375260;107;1960766;-72
2021/05/22 03:03:31;;;;;;;9.91;4.02;;;;;;;;;;371167;107;1961146;-72
2021/05/22 03:04:50;;;;;;;12.12;4.29;;;;;;;;;;324967;107;2746830;-71
2021/05/22 03:05:57;;;;;;;8.21;3.51;;;;;;;;;;363170;111;1963980;-73
2021/05/22 03:07:03;;;;;;;8.84;3.79;;;;;;;;;;362762;109;1964026;-73
2021/05/22 03:08:09;;;;;;;8.58;4.04;;;;;;;;;;357929;111;1962920;-71
2021/05/22 03:09:13;;;;;;;9.25;3.62;;;;;;;;;;358449;111;1964303;-71
2021/05/22 03:10:19;;;;;;;6.36;3.14;;;;;;;;;;359298;111;1964958;-72
2021/05/22 03:11:24;;;;;;;8.36;3.43;;;;;;;;;;356735;112;1961943;-71
2021/05/22 03:12:31;;;;;;;8.07;3.44;;;;;;;;;;357317;111;1961902;-72
2021/05/22 03:13:36;;;;;;;8.44;3.64;;;;;;;;;;355457;111;1961988;-72
2021/05/22 03:14:41;;;;;;;8.13;3.62;;;;;;;;;;357875;111;1961963;-71
2021/05/22 03:15:46;;;;;;;8.51;3.32;;;;;;;;;;358307;111;1962987;-71
2021/05/22 03:16:52;;;;;;;8.73;4.05;;;;;;;;;;307353;111;2873066;-72
2021/05/22 03:17:57;;;;;;;7.44;4.01;;;;;;;;;;311006;113;2022492;-72
2021/05/22 03:19:02;;;;;;;6.59;3.11;;;;;;;;;;310584;112;2022029;-72
2021/05/22 03:20:08;;;;;;;7.52;3.26;;;;;;;;;;354924;111;1962978;-71
2021/05/22 03:21:13;;;;;;;10.64;3.77;;;;;;;;;;357579;112;1962042;-70
2021/05/22 03:22:18;;;;;;;5.94;2.86;;;;;;;;;;349709;115;1962967;-72
2021/05/22 03:23:34;;;;;;;10.35;3.34;;;;;;;;;;345494;115;1961986;-72
2021/05/22 03:24:39;;;;;;;8.24;3.40;;;;;;;;;;359079;111;1961987;-72
2021/05/22 03:25:44;;;;;;;9.25;3.56;;;;;;;;;;366044;109;1961995;-72
2021/05/22 03:26:49;;;;;;;9.64;3.46;;;;;;;;;;367516;109;1961969;-71
2021/05/22 03:27:54;;;;;;;7.88;3.66;;;;;;;;;;365763;109;1963063;-71
2021/05/22 03:28:59;;;;;;;10.84;4.11;;;;;;;;;;365522;109;1961979;-70
2021/05/22 03:30:05;;;;;;;7.72;3.91;;;;;;;;;;365539;109;1960814;-71
2021/05/22 03:31:11;;;;;;;9.86;3.78;;;;;;;;;;363364;109;1963989;-72
2021/05/22 03:32:16;;;;;;;8.30;3.59;;;;;;;;;;362922;109;1961963;-71
2021/05/22 03:33:21;;;;;;;9.37;4.07;;;;;;;;;;365799;109;1962020;-72
2021/05/22 03:34:27;;;;;;;17.71;4.82;;;;;;;;;;366346;109;1963947;-71
2021/05/22 03:35:38;;;;;;;8.39;3.71;;;;;;;;;;394400;104;1963933;-72
2021/05/22 03:36:46;;;;;;;10.18;4.28;;;;;;;;;;377514;105;1961933;-72
2021/05/22 03:38:17;;;;;;;8.73;3.78;;;;;;;;;;381319;99;1985891;-72
2021/05/22 03:39:22;;;;;;;10.84;3.66;;;;;;;;;;363260;102;1961988;-72
2021/05/22 03:40:46;;;;;;;11.04;4.12;;;;;;;;;;392044;101;1961958;-72
2021/05/22 03:41:52;;;;;;;10.97;4.07;;;;;;;;;;339300;102;2842146;-73
2021/05/22 03:43:03;;;;;;;9.34;4.19;;;;;;;;;;388822;103;2071986;-72
2021/05/22 03:44:09;;;;;;;8.02;4.01;;;;;;;;;;376874;105;1969083;-71
2021/05/22 03:45:14;;;;;;;13.80;5.01;;;;;;;;;;378335;105;1960999;-71
2021/05/22 03:46:22;;;;;;;7.58;3.52;;;;;;;;;;366021;105;2896980;-72
2021/05/22 03:47:27;;;;;;;10.53;4.28;;;;;;;;;;316043;105;2096676;-71
2021/05/22 03:48:32;;;;;;;8.67;4.04;;;;;;;;;;317790;107;2074918;-73
2021/05/22 03:49:38;;;;;;;14.52;4.27;;;;;;;;;;308570;109;2086957;-72
2021/05/22 03:50:43;;;;;;;12.25;4.08;;;;;;;;;;371281;107;1961899;-72
2021/05/22 03:51:48;;;;;;;12.03;3.94;;;;;;;;;;370100;107;1962334;-71
2021/05/22 03:52:53;;;;;;;8.91;3.72;;;;;;;;;;371435;107;1961923;-73
2021/05/22 03:53:59;;;;;;;12.62;4.34;;;;;;;;;;371326;107;1962006;-72
2021/05/22 03:55:11;;;;;;;8.72;3.78;;;;;;;;;;392995;104;1986997;-72
2021/05/22 03:56:18;;;;;;;11.18;4.84;;;;;;;;;;372806;105;1962992;-73
2021/05/22 03:57:23;;;;;;;10.53;4.54;;;;;;;;;;372688;107;1962027;-70
2021/05/22 03:58:28;;;;;;;13.14;4.53;;;;;;;;;;371558;107;1961658;-72
2021/05/22 03:59:33;;;;;;;9.11;4.77;;;;;;;;;;370686;107;1961940;-70
2021/05/22 04:00:40;;;;;;;12.12;4.61;;;;;;;;;;369801;107;1961982;-72
2021/05/22 04:01:45;;;;;;;11.41;4.62;;;;;;;;;;370166;107;1961995;-71
2021/05/22 04:02:50;;;;;;;10.38;4.31;;;;;;;;;;369147;107;1961841;-71
2021/05/22 04:03:55;;;;;;;9.17;4.76;;;;;;;;;;370758;107;1964006;-73
2021/05/22 04:05:00;;;;;;;10.14;4.16;;;;;;;;;;372201;107;1963958;-72
2021/05/22 04:06:05;;;;;;;10.51;4.41;;;;;;;;;;363440;109;1961971;-72
2021/05/22 04:07:10;;;;;;;10.46;3.46;;;;;;;;;;370227;107;1961733;-72
2021/05/22 04:08:15;;;;;;;9.41;3.55;;;;;;;;;;368468;107;1962963;-72
2021/05/22 04:09:20;;;;;;;8.80;3.38;;;;;;;;;;371919;107;1962068;-73
2021/05/22 04:10:26;;;;;;;8.09;3.86;;;;;;;;;;370940;107;1962059;-73
2021/05/22 04:11:41;;;;;;;10.41;3.77;;;;;;;;;;391036;104;1985980;-73
2021/05/22 04:12:46;;;;;;;9.43;3.39;;;;;;;;;;375600;107;1969952;-72
2021/05/22 04:13:51;;;;;;;9.48;3.51;;;;;;;;;;377502;106;1962957;-73
2021/05/22 04:15:03;;;;;;;8.38;3.86;;;;;;;;;;401112;101;1985944;-71
2021/05/22 04:16:10;;;;;;;12.01;3.53;;;;;;;;;;383372;103;1961934;-72
2021/05/22 04:17:15;;;;;;;10.69;3.32;;;;;;;;;;383439;103;1961985;-72
2021/05/22 04:18:20;;;;;;;13.26;3.88;;;;;;;;;;381923;104;1961929;-72
2021/05/22 04:19:31;;;;;;;8.14;2.91;;;;;;;;;;385293;106;1985958;-72
2021/05/22 04:20:37;;;;;;;9.15;3.39;;;;;;;;;;328482;109;2635006;-72
2021/05/22 04:21:43;;;;;;;15.51;4.01;;;;;;;;;;328232;109;1961968;-72
2021/05/22 04:22:48;;;;;;;8.83;3.17;;;;;;;;;;336097;106;1961992;-71
2021/05/22 04:23:53;;;;;;;11.91;3.77;;;;;;;;;;333586;109;1965283;-72
2021/05/22 04:24:58;;;;;;;8.02;2.73;;;;;;;;;;331782;109;1962018;-72
2021/05/22 04:26:29;;;;;;;5.51;2.78;;;;;;;;;;405014;100;1984796;-72
2021/05/22 04:27:34;;;;;;;8.02;2.48;;;;;;;;;;382172;104;1963995;-72
2021/05/22 04:28:39;;;;;;;7.86;3.49;;;;;;;;;;383923;105;1960899;-72
2021/05/22 04:29:44;;;;;;;8.32;3.15;;;;;;;;;;383110;105;1960644;-72
2021/05/22 04:30:49;;;;;;;33.14;4.33;;;;;;;;;;382654;105;1962914;-72
2021/05/22 04:31:54;;;;;;;10.83;2.77;;;;;;;;;;382305;105;1962024;-73
2021/05/22 04:33:00;;;;;;;9.18;3.19;;;;;;;;;;382221;103;1964930;-69
2021/05/22 04:34:05;;;;;;;6.61;2.59;;;;;;;;;;380991;104;1962967;-72
2021/05/22 04:35:10;;;;;;;8.34;2.59;;;;;;;;;;382636;105;1961958;-72
2021/05/22 04:36:15;;;;;;;9.62;2.67;;;;;;;;;;382569;105;1963086;-72
2021/05/22 04:37:20;;;;;;;6.59;2.87;;;;;;;;;;382213;105;1962996;-71
2021/05/22 04:38:25;;;;;;;7.53;3.09;;;;;;;;;;382699;105;1962020;-71
2021/05/22 04:39:30;;;;;;;8.19;3.16;;;;;;;;;;381176;104;1962034;-72
2021/05/22 04:40:42;;;;;;;5.15;2.13;;;;;;;;;;392363;104;1986925;-72
2021/05/22 04:41:49;;;;;;;7.14;2.70;;;;;;;;;;375289;107;1962041;-74
2021/05/22 04:42:54;;;;;;;8.45;2.37;;;;;;;;;;377407;106;1961887;-73
2021/05/22 04:44:00;;;;;;;7.78;2.72;;;;;;;;;;375160;106;1962928;-72
2021/05/22 04:45:06;;;;;;;9.09;2.75;;;;;;;;;;374413;106;1962024;-73
2021/05/22 04:46:12;;;;;;;7.68;2.79;;;;;;;;;;375898;106;1961945;-72
2021/05/22 04:47:18;;;;;;;8.17;2.67;;;;;;;;;;374107;105;1962110;-72
2021/05/22 04:48:29;;;;;;;7.04;2.51;;;;;;;;;;364204;104;2070818;-72
2021/05/22 04:49:34;;;;;;;5.82;2.44;;;;;;;;;;331752;107;1974012;-74
2021/05/22 04:50:41;;;;;;;6.53;2.60;;;;;;;;;;375578;107;1961919;-71
2021/05/22 04:51:47;;;;;;;6.68;2.51;;;;;;;;;;377229;106;1961911;-72
2021/05/22 04:52:52;;;;;;;7.46;2.63;;;;;;;;;;377751;107;1964027;-73
2021/05/22 04:54:02;;;;;;;7.76;2.72;;;;;;;;;;375364;107;1961860;-72
2021/05/22 04:55:14;;;;;;;7.99;3.39;;;;;;;;;;344493;104;2874010;-73
2021/05/22 04:56:20;;;;;;;8.22;3.13;;;;;;;;;;378250;105;1966984;-74
2021/05/22 04:57:25;;;;;;;9.37;2.73;;;;;;;;;;373665;105;1963019;-73
2021/05/22 04:58:40;;;;;;;6.22;2.56;;;;;;;;;;369402;104;2902909;-74
2021/05/22 04:59:45;;;;;;;6.61;2.43;;;;;;;;;;354797;105;1965961;-73
2021/05/22 05:00:50;;;;;;;5.60;2.48;;;;;;;;;;374551;105;1961988;-72
2021/05/22 05:02:02;;;;;;;9.69;2.69;;;;;;;;;;394729;104;1985946;-72
2021/05/22 05:03:07;;;;;;;7.70;2.14;;;;;;;;;;370120;108;1961942;-71
2021/05/22 05:04:12;;;;;;;5.03;2.47;;;;;;;;;;371651;107;1961955;-70
2021/05/22 05:05:17;;;;;;;7.24;2.82;;;;;;;;;;371910;107;1962022;-72
2021/05/22 05:06:23;;;;;;;6.17;2.17;;;;;;;;;;371561;107;1963923;-73
2021/05/22 05:07:28;;;;;;;7.85;2.81;;;;;;;;;;373327;108;1962071;-72
2021/05/22 05:08:32;;;;;;;6.85;2.71;;;;;;;;;;356877;111;1962005;-73
2021/05/22 05:09:38;;;;;;;7.17;2.92;;;;;;;;;;365076;108;1964098;-73
2021/05/22 05:10:50;;;;;;;5.83;2.38;;;;;;;;;;386800;106;1995064;-72
2021/05/22 05:11:55;;;;;;;7.88;2.87;;;;;;;;;;367466;109;1962016;-72
2021/05/22 05:13:01;;;;;;;6.76;2.41;;;;;;;;;;359476;109;2894976;-71
2021/05/22 05:14:06;;;;;;;5.67;2.45;;;;;;;;;;334673;108;1962012;-72
2021/05/22 05:15:12;;;;;;;6.11;2.36;;;;;;;;;;367005;109;1961941;-72
2021/05/22 05:16:18;;;;;;;9.28;2.86;;;;;;;;;;366136;109;1964309;-71
2021/05/22 05:17:23;;;;;;;6.56;2.99;;;;;;;;;;367989;109;1963038;-71
2021/05/22 05:18:35;;;;;;;8.88;3.62;;;;;;;;;;396078;104;1984755;-72
2021/05/22 05:19:40;;;;;;;8.25;2.37;;;;;;;;;;377707;105;1961980;-70
2021/05/22 05:20:47;;;;;;;10.14;3.77;;;;;;;;;;378149;106;1964017;-72
2021/05/22 05:21:53;;;;;;;8.44;2.69;;;;;;;;;;370970;107;1962032;-72
2021/05/22 05:23:05;;;;;;;8.43;2.70;;;;;;;;;;394082;104;1986962;-73
2021/05/22 05:24:09;;;;;;;6.56;2.46;;;;;;;;;;376487;107;1962016;-72
2021/05/22 05:25:14;;;;;;;11.06;2.36;;;;;;;;;;374312;107;1962013;-73
2021/05/22 05:26:20;;;;;;;6.66;2.21;;;;;;;;;;374016;105;1963006;-73
2021/05/22 05:27:25;;;;;;;5.22;2.44;;;;;;;;;;373214;107;1964005;-73
2021/05/22 05:28:30;;;;;;;5.81;2.91;;;;;;;;;;371538;107;1962042;-73
2021/05/22 05:29:39;;;;;;;8.27;2.66;;;;;;;;;;370518;107;1962022;-73
2021/05/22 05:30:49;;;;;;;5.67;2.29;;;;;;;;;;393830;104;1994033;-71
2021/05/22 05:31:54;;;;;;;6.67;2.82;;;;;;;;;;373564;107;1962028;-73
2021/05/22 05:32:59;;;;;;;9.14;2.96;;;;;;;;;;363252;110;1960977;-72
2021/05/22 05:34:12;;;;;;;6.80;2.44;;;;;;;;;;385773;105;1985944;-72
2021/05/22 05:35:17;;;;;;;9.36;3.05;;;;;;;;;;360546;110;1961959;-72
2021/05/22 05:36:23;;;;;;;8.98;2.49;;;;;;;;;;326649;107;2890081;-73
2021/05/22 05:37:28;;;;;;;5.29;2.56;;;;;;;;;;308124;107;2213960;-73
2021/05/22 05:38:33;;;;;;;7.01;2.09;;;;;;;;;;302625;106;2268797;-72
2021/05/22 05:39:39;;;;;;;7.31;3.12;;;;;;;;;;302892;107;2262858;-72
2021/05/22 05:40:45;;;;;;;7.75;2.66;;;;;;;;;;370943;106;1961960;-73
2021/05/22 05:41:50;;;;;;;6.31;2.38;;;;;;;;;;372796;106;1963979;-72
2021/05/22 05:42:55;;;;;;;6.22;2.01;;;;;;;;;;371733;105;1961000;-71
2021/05/22 05:44:00;;;;;;;4.47;2.08;;;;;;;;;;358881;111;1962907;-72
2021/05/22 05:45:07;;;;;;;4.94;2.24;;;;;;;;;;358959;112;1963019;-72
2021/05/22 05:46:13;;;;;;;6.59;2.23;;;;;;;;;;359645;112;1962028;-72
2021/05/22 05:47:18;;;;;;;3.98;2.09;;;;;;;;;;356700;112;1961951;-72
2021/05/22 05:48:30;;;;;;;5.96;2.12;;;;;;;;;;371697;104;1984878;-71
2021/05/22 05:49:35;;;;;;;9.16;2.32;;;;;;;;;;337150;105;1977821;-72
2021/05/22 05:50:40;;;;;;;5.35;2.35;;;;;;;;;;334961;106;2007917;-72
2021/05/22 05:51:45;;;;;;;7.78;2.62;;;;;;;;;;354270;105;1961989;-72
2021/05/22 05:52:57;;;;;;;5.32;1.89;;;;;;;;;;393094;103;1986022;-73
2021/05/22 05:54:02;;;;;;;5.09;2.38;;;;;;;;;;373061;105;1961037;-72
2021/05/22 05:55:07;;;;;;;7.72;2.42;;;;;;;;;;375725;106;1961979;-73
2021/05/22 05:56:13;;;;;;;3.65;1.66;;;;;;;;;;375726;105;1962071;-71
2021/05/22 05:57:18;;;;;;;10.38;2.70;;;;;;;;;;375926;105;1962986;-73
2021/05/22 05:58:32;;;;;;;4.98;2.17;;;;;;;;;;378876;105;1961973;-72
2021/05/22 05:59:37;;;;;;;3.05;1.84;;;;;;;;;;365279;107;1961920;-72
2021/05/22 06:00:44;;;;;;;4.66;1.98;;;;;;;;;;368460;109;1962084;-72
2021/05/22 06:01:49;;;;;;;5.55;1.65;;;;;;;;;;367076;109;1961959;-72
2021/05/22 06:02:54;;;;;;;8.14;1.59;;;;;;;;;;360307;110;1961905;-72
2021/05/22 06:04:25;;;;;;;4.27;1.61;;;;;;;;;;413386;98;1985936;-73
2021/05/22 06:05:31;;;;;;;5.92;1.63;;;;;;;;;;397287;101;1962966;-72
2021/05/22 06:06:38;;;;;;;6.74;1.43;;;;;;;;;;395380;101;1961927;-72
2021/05/22 06:07:43;;;;;;;2.72;1.50;;;;;;;;;;392582;101;1962059;-72
2021/05/22 06:08:48;;;;;;;5.59;2.05;;;;;;;;;;389885;102;1962998;-71
2021/05/22 06:09:53;;;;;;;5.07;1.58;;;;;;;;;;386250;101;1961973;-72
2021/05/22 06:11:00;;;;;;;4.46;1.80;;;;;;;;;;379614;101;1959824;-73
2021/05/22 06:12:05;;;;;;;3.12;1.35;;;;;;;;;;392158;102;1961948;-72
2021/05/22 06:13:25;;;;;;;2.82;1.47;;;;;;;;;;379485;104;1962000;-72
2021/05/22 06:14:36;;;;;;;4.37;1.31;;;;;;;;;;355231;112;1961959;-72
2021/05/22 06:15:47;;;;;;;6.22;1.73;;;;;;;;;;357716;112;1961941;-73
2021/05/22 06:16:49;;;;;;;4.64;1.62;;;;;;;;;;350403;110;1962071;-72
2021/05/22 06:17:54;;;;;;;3.54;1.14;;;;;;;;;;360496;110;1961962;-73
2021/05/22 06:18:59;;;;;;;4.71;1.08;;;;;;;;;;348649;111;1961982;-72
2021/05/22 06:20:05;;;;;;;5.69;1.22;;;;;;;;;;350500;114;1961951;-72
2021/05/22 06:21:10;;;;;;;4.95;1.38;;;;;;;;;;366878;108;1962963;-72
2021/05/22 06:22:15;;;;;;;3.41;1.03;;;;;;;;;;374780;106;1963936;-72
2021/05/22 06:23:20;;;;;;;2.61;1.16;;;;;;;;;;375703;106;1962948;-70
2021/05/22 06:24:25;;;;;;;7.30;2.34;;;;;;;;;;375926;106;1963927;-72
2021/05/22 06:25:30;;;;;;;4.68;1.28;;;;;;;;;;375608;106;1961941;-73
2021/05/22 06:26:36;;;;;;;5.61;1.67;;;;;;;;;;375960;106;1963009;-72
2021/05/22 06:27:41;;;;;;;2.82;1.28;;;;;;;;;;375027;106;1964045;-73
2021/05/22 06:28:46;;;;;;;4.79;1.90;;;;;;;;;;373365;106;1961969;-71
2021/05/22 06:29:51;;;;;;;2.94;1.30;;;;;;;;;;369689;108;1963075;-73